Time;durP1;ratioP1;P1;durP2;ratioP2;P2;SDS_P1;SDS_P2;PMS_P1;PMS_P2;Temp;Humidity;BMP_temperature;BMP_pressure;BME280_temperature;BME280_humidity;BME280_pressure;Samples;Min_cycle;Max_cycle;Signal;HPM_P1;HPM_P2
2021/12/13 00:00:17;;;;;;;355.90;107.53;;;;;;;5.50;68.63;99594.88;341562;28;2038;-71
2021/12/13 00:00:36;;;;;;;355.80;110.97;;;;;;;5.52;68.06;99589.66;339679;29;992;-71
2021/12/13 00:01:11;;;;;;;355.00;108.47;;;;;;;5.47;67.67;99583.72;338278;29;1601;-71
2021/12/13 00:01:38;;;;;;;355.02;110.15;;;;;;;5.47;67.97;99584.56;338441;29;1988;-71
2021/12/13 00:02:02;;;;;;;353.50;106.38;;;;;;;5.44;68.08;99588.97;342728;28;1906;-71
2021/12/13 00:02:48;;;;;;;355.77;112.28;;;;;;;5.42;68.05;99589.00;341207;29;897;-71
2021/12/13 00:03:22;;;;;;;355.83;111.00;;;;;;;5.40;67.56;99584.72;342141;28;999;-71
2021/12/13 00:03:55;;;;;;;357.25;114.88;;;;;;;5.45;67.72;99599.31;339943;29;1796;-71
2021/12/13 00:04:12;;;;;;;355.60;110.28;;;;;;;5.46;67.78;99594.97;337887;29;2251;-71
2021/12/13 00:04:31;;;;;;;356.20;112.15;;;;;;;5.49;67.70;99598.38;339245;29;2698;-71
2021/12/13 00:05:06;;;;;;;355.65;110.88;;;;;;;5.49;67.85;99592.31;342309;28;2472;-71
2021/12/13 00:05:41;;;;;;;354.10;108.35;;;;;;;5.50;67.49;99594.03;342506;28;1300;-71
2021/12/13 00:05:55;;;;;;;355.35;111.65;;;;;;;5.46;67.46;99594.97;341838;28;1603;-71
2021/12/13 00:06:08;;;;;;;354.88;111.05;;;;;;;5.43;67.14;99589.84;339268;29;1771;-71
2021/12/13 00:06:23;;;;;;;355.10;111.18;;;;;;;5.43;67.07;99593.28;341421;28;1647;-71
2021/12/13 00:06:37;;;;;;;355.52;112.00;;;;;;;5.44;67.40;99599.34;342547;28;2236;-71
2021/12/13 00:06:53;;;;;;;356.65;114.57;;;;;;;5.44;67.46;99595.00;343547;28;1731;-71
2021/12/13 00:07:24;;;;;;;356.98;113.30;;;;;;;5.44;67.85;99601.94;339622;29;2132;-71
2021/12/13 00:07:37;;;;;;;355.55;109.00;;;;;;;5.43;67.59;99595.88;339456;29;2189;-71
2021/12/13 00:07:53;;;;;;;355.80;109.38;;;;;;;5.45;67.45;99595.84;341596;28;2097;-71
2021/12/13 00:08:06;;;;;;;355.27;110.05;;;;;;;5.47;67.24;99594.94;341866;28;1762;-71
2021/12/13 00:08:25;;;;;;;354.00;108.22;;;;;;;5.43;67.48;99595.88;340488;29;1841;-71
2021/12/13 00:08:37;;;;;;;356.13;110.93;;;;;;;5.41;67.54;99597.66;340311;29;2115;-71
2021/12/13 00:08:49;;;;;;;357.17;113.63;;;;;;;5.43;67.87;99595.03;341862;28;1631;-72
2021/12/13 00:09:01;;;;;;;355.77;112.15;;;;;;;5.42;67.45;99594.19;341144;28;1327;-72
2021/12/13 00:09:14;;;;;;;354.92;111.65;;;;;;;5.40;67.82;99605.47;342015;28;2103;-71
2021/12/13 00:09:26;;;;;;;355.40;109.82;;;;;;;5.40;67.64;99595.94;341920;28;1277;-71
2021/12/13 00:09:40;;;;;;;356.13;110.35;;;;;;;5.40;67.53;99603.75;339628;29;2273;-71
2021/12/13 00:09:57;;;;;;;356.23;111.95;;;;;;;5.45;67.35;99603.66;342577;28;1832;-71
2021/12/13 00:10:18;;;;;;;355.52;110.75;;;;;;;5.44;67.75;99594.16;341504;28;2213;-71
2021/12/13 00:10:40;;;;;;;354.92;108.18;;;;;;;5.44;67.79;99602.78;339732;29;980;-71
2021/12/13 00:10:53;;;;;;;355.00;108.05;;;;;;;5.38;67.38;99597.72;340222;29;1997;-71
2021/12/13 00:11:12;;;;;;;355.05;109.70;;;;;;;5.35;67.17;99593.44;342425;28;1586;-71
2021/12/13 00:11:25;;;;;;;355.20;111.45;;;;;;;5.34;67.36;99596.06;343124;28;1357;-72
2021/12/13 00:11:41;;;;;;;354.52;110.90;;;;;;;5.34;67.74;99603.84;342381;28;2083;-72
2021/12/13 00:11:55;;;;;;;352.95;107.90;;;;;;;5.34;67.26;99602.13;343569;28;1518;-72
2021/12/13 00:12:06;;;;;;;354.17;108.63;;;;;;;5.35;67.22;99597.78;343745;28;1490;-71
2021/12/13 00:12:33;;;;;;;355.33;110.18;;;;;;;5.36;67.15;99599.50;342468;28;1167;-71
2021/12/13 00:12:50;;;;;;;357.27;113.45;;;;;;;5.38;66.67;99608.09;341117;28;1771;-71
2021/12/13 00:13:07;;;;;;;355.20;107.97;;;;;;;5.38;67.10;99597.72;340939;28;853;-71
2021/12/13 00:13:24;;;;;;;355.05;107.43;;;;;;;5.37;66.97;99596.00;339616;29;1768;-71
2021/12/13 00:13:40;;;;;;;356.42;110.18;;;;;;;5.37;66.61;99601.19;342337;28;1978;-71
2021/12/13 00:14:09;;;;;;;355.80;110.00;;;;;;;5.38;66.86;99600.31;341903;28;1872;-71
2021/12/13 00:14:33;;;;;;;355.52;107.30;;;;;;;5.38;67.21;99602.91;342626;28;1706;-71
2021/12/13 00:14:50;;;;;;;356.48;109.32;;;;;;;5.37;66.74;99601.19;341164;29;896;-71
2021/12/13 00:15:04;;;;;;;356.77;109.32;;;;;;;5.38;66.48;99599.47;340322;29;2370;-71
2021/12/13 00:15:26;;;;;;;357.17;111.15;;;;;;;5.38;66.63;99595.13;342158;28;1985;-71
2021/12/13 00:15:56;;;;;;;356.65;111.28;;;;;;;5.35;66.77;99603.81;341416;28;1838;-71
2021/12/13 00:16:07;;;;;;;354.50;106.90;;;;;;;5.37;67.33;99597.75;338031;29;1901;-71
2021/12/13 00:16:27;;;;;;;355.48;109.05;;;;;;;5.38;66.80;99605.50;339842;29;2046;-71
2021/12/13 00:16:41;;;;;;;355.60;109.30;;;;;;;5.38;67.13;99608.09;342207;28;1964;-71
2021/12/13 00:16:59;;;;;;;356.33;110.72;;;;;;;5.37;67.16;99596.00;342327;28;1817;-71
2021/12/13 00:17:38;;;;;;;359.17;113.88;;;;;;;5.39;67.17;99601.16;342311;28;1894;-72
2021/12/13 00:17:50;;;;;;;357.20;112.78;;;;;;;5.38;66.69;99602.91;339034;28;2606;-72
2021/12/13 00:18:04;;;;;;;356.20;112.72;;;;;;;5.39;66.52;99604.63;340471;29;932;-72
2021/12/13 00:18:19;;;;;;;355.33;111.50;;;;;;;5.40;66.56;99611.53;341350;28;1367;-72
2021/12/13 00:18:32;;;;;;;356.67;113.25;;;;;;;5.40;66.71;99597.69;341024;29;1381;-72
2021/12/13 00:18:45;;;;;;;357.48;114.60;;;;;;;5.39;66.59;99601.16;338034;29;2081;-72
2021/12/13 00:18:59;;;;;;;356.98;114.10;;;;;;;5.39;66.44;99603.75;339802;29;1867;-72
2021/12/13 00:19:16;;;;;;;356.48;113.28;;;;;;;5.39;66.71;99604.63;340525;29;1735;-72
2021/12/13 00:19:32;;;;;;;356.17;113.38;;;;;;;5.39;66.47;99604.63;341946;28;2314;-72
2021/12/13 00:19:52;;;;;;;356.05;110.60;;;;;;;5.37;66.42;99598.59;339855;29;2116;-72
2021/12/13 00:20:09;;;;;;;354.88;108.25;;;;;;;5.37;66.01;99600.34;337216;29;977;-71
2021/12/13 00:20:28;;;;;;;355.52;109.53;;;;;;;5.40;66.16;99606.31;339190;29;1840;-71
2021/12/13 00:20:41;;;;;;;355.48;109.80;;;;;;;5.40;66.49;99600.28;342428;28;1751;-71
2021/12/13 00:20:57;;;;;;;355.70;110.05;;;;;;;5.39;66.53;99599.44;341119;28;2025;-71
2021/12/13 00:21:21;;;;;;;355.80;110.63;;;;;;;5.39;66.16;99599.44;341991;28;2109;-71
2021/12/13 00:21:39;;;;;;;355.17;110.72;;;;;;;5.36;66.36;99594.31;339718;29;925;-71
2021/12/13 00:21:56;;;;;;;354.83;109.45;;;;;;;5.34;66.19;99599.53;343773;28;1503;-72
2021/12/13 00:22:12;;;;;;;356.30;110.78;;;;;;;5.31;66.33;99603.91;341484;28;2081;-71
2021/12/13 00:22:25;;;;;;;356.17;110.65;;;;;;;5.33;66.65;99600.41;342224;28;2240;-72
2021/12/13 00:22:44;;;;;;;354.98;109.10;;;;;;;5.35;66.49;99602.97;341008;28;2084;-72
2021/12/13 00:22:59;;;;;;;356.25;113.60;;;;;;;5.37;66.57;99600.34;339768;29;1677;-72
2021/12/13 00:23:19;;;;;;;356.77;115.68;;;;;;;5.37;66.35;99601.19;341682;28;1942;-72
2021/12/13 00:23:32;;;;;;;354.65;111.85;;;;;;;5.37;66.22;99598.59;341962;28;1808;-72
2021/12/13 00:23:51;;;;;;;354.52;109.97;;;;;;;5.42;65.92;99606.31;339655;29;1656;-72
2021/12/13 00:24:05;;;;;;;355.30;109.18;;;;;;;5.44;66.01;99602.78;342500;28;1131;-72
2021/12/13 00:24:25;;;;;;;353.98;107.93;;;;;;;5.43;66.35;99606.28;341093;28;1402;-72
2021/12/13 00:24:39;;;;;;;352.42;107.75;;;;;;;5.42;66.29;99604.56;339012;29;1897;-71
2021/12/13 00:24:50;;;;;;;353.95;109.28;;;;;;;5.44;66.40;99607.13;337344;29;1795;-71
2021/12/13 00:25:03;;;;;;;354.77;110.53;;;;;;;5.44;66.51;99602.78;339776;29;1462;-71
2021/12/13 00:25:18;;;;;;;355.52;111.03;;;;;;;5.45;66.19;99607.09;340795;29;2331;-71
2021/12/13 00:25:29;;;;;;;354.33;109.70;;;;;;;5.43;66.23;99605.41;339135;29;2099;-71
2021/12/13 00:25:43;;;;;;;354.65;110.78;;;;;;;5.41;65.89;99597.66;339070;28;2419;-71
2021/12/13 00:25:55;;;;;;;354.60;111.32;;;;;;;5.39;66.44;99604.63;340186;29;2036;-71
2021/12/13 00:26:06;;;;;;;354.23;112.18;;;;;;;5.41;66.43;99610.63;342297;28;2135;-71
2021/12/13 00:26:21;;;;;;;353.80;109.77;;;;;;;5.42;66.35;99608.91;339866;29;956;-71
2021/12/13 00:26:45;;;;;;;353.02;107.88;;;;;;;5.43;66.72;99601.09;339804;29;1163;-71
2021/12/13 00:27:08;;;;;;;355.33;114.65;;;;;;;5.44;66.33;99602.78;340234;29;1824;-71
2021/12/13 00:27:25;;;;;;;355.13;110.80;;;;;;;5.44;66.44;99602.78;341102;28;906;-71
2021/12/13 00:27:41;;;;;;;357.67;113.70;;;;;;;5.45;66.49;99595.84;338651;29;2074;-71
2021/12/13 00:28:04;;;;;;;354.92;111.30;;;;;;;5.46;66.41;99603.63;341104;28;1964;-71
2021/12/13 00:28:17;;;;;;;352.30;109.00;;;;;;;5.45;66.05;99601.91;343830;28;2144;-71
2021/12/13 00:28:33;;;;;;;353.85;111.57;;;;;;;5.41;65.99;99600.25;342225;28;2268;-71
2021/12/13 00:28:44;;;;;;;353.58;109.45;;;;;;;5.38;66.09;99602.91;339530;29;2109;-71
2021/12/13 00:28:54;;;;;;;353.50;108.87;;;;;;;5.37;65.80;99605.53;340706;29;1602;-71
2021/12/13 00:29:09;;;;;;;353.00;108.88;;;;;;;5.37;66.01;99606.38;342539;28;1079;-71
2021/12/13 00:29:26;;;;;;;352.95;108.88;;;;;;;5.38;65.94;99608.09;338465;29;822;-71
2021/12/13 00:29:57;;;;;;;352.70;108.57;;;;;;;5.41;66.13;99608.03;339948;28;2022;-71
2021/12/13 00:30:14;;;;;;;352.95;107.15;;;;;;;5.37;65.85;99609.00;340153;29;1984;-71
2021/12/13 00:30:49;;;;;;;354.20;109.28;;;;;;;5.40;65.53;99613.25;341639;28;2095;-71
2021/12/13 00:31:26;;;;;;;353.23;107.43;;;;;;;5.45;65.68;99614.03;341419;28;2776;-71
2021/12/13 00:31:44;;;;;;;352.46;106.36;;;;;;;5.47;65.36;99607.91;342413;28;2206;-71
2021/12/13 00:32:06;;;;;;;353.73;105.97;;;;;;;5.45;65.78;99609.69;341049;28;2179;-71
2021/12/13 00:32:18;;;;;;;354.48;108.18;;;;;;;5.42;65.87;99609.75;341140;29;2153;-71
2021/12/13 00:32:37;;;;;;;352.85;107.32;;;;;;;5.42;65.62;99607.16;341019;29;2489;-71
2021/12/13 00:32:55;;;;;;;356.04;112.52;;;;;;;5.44;65.23;99617.50;342354;28;2601;-71
2021/12/13 00:33:31;;;;;;;357.73;114.38;;;;;;;5.44;65.18;99617.50;340671;29;1839;-71
2021/12/13 00:34:09;;;;;;;353.58;108.47;;;;;;;5.41;65.07;99613.22;341037;28;2351;-71
2021/12/13 00:34:38;;;;;;;354.38;111.60;;;;;;;5.41;65.50;99613.22;339794;29;921;-71
2021/12/13 00:34:50;;;;;;;352.17;108.65;;;;;;;5.40;65.51;99611.53;342573;28;1105;-71
2021/12/13 00:35:02;;;;;;;351.13;106.78;;;;;;;5.39;65.70;99602.03;343028;28;1017;-71
2021/12/13 00:35:14;;;;;;;352.90;110.63;;;;;;;5.37;65.59;99606.38;342270;28;1998;-71
2021/12/13 00:35:41;;;;;;;355.20;114.05;;;;;;;5.37;65.51;99606.38;340200;28;2032;-71
2021/12/13 00:36:05;;;;;;;350.98;105.32;;;;;;;5.41;65.82;99609.78;338692;29;1860;-71
2021/12/13 00:36:18;;;;;;;353.98;111.47;;;;;;;5.43;65.64;99610.59;339815;29;986;-72
2021/12/13 00:36:42;;;;;;;354.55;111.43;;;;;;;5.44;65.46;99610.56;341108;28;2189;-72
2021/12/13 00:36:57;;;;;;;353.48;109.40;;;;;;;5.42;65.50;99609.75;341025;29;1504;-72
2021/12/13 00:37:15;;;;;;;354.92;111.07;;;;;;;5.40;65.32;99601.13;339690;29;2068;-72
2021/12/13 00:37:32;;;;;;;355.75;112.10;;;;;;;5.40;65.44;99608.06;339428;29;1643;-72
2021/12/13 00:37:44;;;;;;;353.65;108.97;;;;;;;5.39;65.29;99609.81;339466;29;2086;-72
2021/12/13 00:37:57;;;;;;;353.70;109.22;;;;;;;5.41;65.40;99612.38;341978;28;2370;-72
2021/12/13 00:38:08;;;;;;;351.92;106.50;;;;;;;5.41;65.62;99608.03;341367;28;1719;-72
2021/12/13 00:38:20;;;;;;;352.17;105.65;;;;;;;5.41;65.72;99607.19;343430;28;1025;-72
2021/12/13 00:38:31;;;;;;;352.60;106.07;;;;;;;5.37;65.36;99606.38;342268;28;1826;-71
2021/12/13 00:38:47;;;;;;;353.73;108.32;;;;;;;5.37;65.35;99609.00;339203;29;1976;-71
2021/12/13 00:39:14;;;;;;;353.08;108.25;;;;;;;5.37;65.20;99611.56;341087;28;1782;-71
2021/12/13 00:39:47;;;;;;;351.92;105.38;;;;;;;5.38;65.51;99607.25;339566;29;1503;-71
2021/12/13 00:40:11;;;;;;;349.80;101.88;;;;;;;5.36;65.54;99609.88;341111;28;1807;-71
2021/12/13 00:40:33;;;;;;;352.00;106.35;;;;;;;5.33;65.47;99602.16;338890;29;2076;-71
2021/12/13 00:40:46;;;;;;;355.00;110.30;;;;;;;5.33;65.77;99610.78;339912;29;2415;-71
2021/12/13 00:41:02;;;;;;;357.20;113.30;;;;;;;5.37;65.71;99609.00;341292;29;2116;-71
2021/12/13 00:41:15;;;;;;;354.95;112.22;;;;;;;5.37;65.46;99608.13;339094;29;1792;-71
2021/12/13 00:41:28;;;;;;;352.83;107.68;;;;;;;5.37;65.58;99611.56;339739;29;1676;-72
2021/12/13 00:41:39;;;;;;;351.98;104.45;;;;;;;5.38;65.31;99608.09;341206;28;2063;-71
2021/12/13 00:41:50;;;;;;;352.70;105.50;;;;;;;5.37;65.22;99606.38;342732;28;1232;-72
2021/12/13 00:42:01;;;;;;;353.65;106.75;;;;;;;5.36;65.53;99612.47;342498;28;1251;-72
2021/12/13 00:42:11;;;;;;;354.83;109.88;;;;;;;5.35;65.42;99613.34;341807;28;2039;-72
2021/12/13 00:42:24;;;;;;;354.83;110.22;;;;;;;5.37;65.65;99616.78;342527;28;1900;-72
2021/12/13 00:42:37;;;;;;;354.67;109.47;;;;;;;5.35;65.69;99602.97;341404;29;917;-72
2021/12/13 00:43:02;;;;;;;354.00;108.30;;;;;;;5.39;65.66;99609.81;341565;28;1983;-72
2021/12/13 00:43:33;;;;;;;353.38;108.80;;;;;;;5.42;66.09;99612.34;342199;28;2177;-72
2021/12/13 00:43:57;;;;;;;351.17;104.70;;;;;;;5.44;65.73;99607.13;340985;28;1567;-72
2021/12/13 00:44:12;;;;;;;356.10;110.95;;;;;;;5.46;65.42;99614.00;341579;28;2059;-72
2021/12/13 00:44:37;;;;;;;357.08;113.57;;;;;;;5.48;65.35;99604.44;345180;28;2195;-72
2021/12/13 00:44:52;;;;;;;352.63;105.55;;;;;;;5.49;65.58;99607.88;342616;28;923;-72
2021/12/13 00:45:07;;;;;;;351.46;105.24;;;;;;;5.47;65.54;99605.31;342019;28;1703;-72
2021/12/13 00:45:18;;;;;;;351.73;106.53;;;;;;;5.47;65.37;99607.91;340140;29;938;-72
2021/12/13 00:45:31;;;;;;;352.45;107.78;;;;;;;5.45;65.37;99609.69;341952;28;1566;-72
2021/12/13 00:45:53;;;;;;;352.10;106.22;;;;;;;5.44;65.67;99607.97;341035;29;2156;-72
2021/12/13 00:46:07;;;;;;;352.95;106.65;;;;;;;5.44;65.58;99602.78;339984;29;869;-72
2021/12/13 00:46:18;;;;;;;357.10;110.35;;;;;;;5.45;65.83;99607.09;339957;29;1348;-72
2021/12/13 00:46:28;;;;;;;356.65;110.25;;;;;;;5.45;65.51;99604.50;340736;29;2085;-72
2021/12/13 00:46:39;;;;;;;354.37;108.73;;;;;;;5.44;65.80;99607.97;342559;28;1886;-72
2021/12/13 00:46:50;;;;;;;353.50;109.88;;;;;;;5.46;65.64;99608.81;344104;28;944;-71
2021/12/13 00:47:02;;;;;;;352.30;107.63;;;;;;;5.46;65.69;99606.22;342509;28;1748;-71
2021/12/13 00:47:17;;;;;;;352.77;107.05;;;;;;;5.43;65.71;99606.28;341294;28;2063;-71
2021/12/13 00:47:30;;;;;;;353.50;106.50;;;;;;;5.43;65.50;99608.88;340907;28;1644;-71
2021/12/13 00:47:42;;;;;;;354.65;108.30;;;;;;;5.43;65.76;99606.28;340925;28;2307;-71
2021/12/13 00:47:52;;;;;;;354.30;108.72;;;;;;;5.44;66.01;99607.97;341783;28;1762;-71
2021/12/13 00:48:04;;;;;;;355.02;110.78;;;;;;;5.43;65.67;99605.41;340094;29;1077;-71
2021/12/13 00:48:14;;;;;;;354.00;108.13;;;;;;;5.41;65.52;99608.03;338753;29;2189;-71
2021/12/13 00:48:25;;;;;;;354.70;108.30;;;;;;;5.39;65.34;99604.63;339632;29;1070;-71
2021/12/13 00:48:37;;;;;;;355.35;109.03;;;;;;;5.40;65.20;99602.88;338861;29;1422;-71
2021/12/13 00:48:50;;;;;;;355.60;109.80;;;;;;;5.40;65.44;99608.06;341702;28;904;-71
2021/12/13 00:49:01;;;;;;;354.38;110.47;;;;;;;5.38;65.47;99602.91;345335;28;2206;-71
2021/12/13 00:49:12;;;;;;;354.50;111.55;;;;;;;5.39;65.57;99607.22;341521;28;2093;-72
2021/12/13 00:49:27;;;;;;;355.27;112.30;;;;;;;5.38;65.26;99602.91;341156;28;2584;-72
2021/12/13 00:49:39;;;;;;;355.48;111.88;;;;;;;5.40;65.52;99603.75;340006;29;1406;-72
2021/12/13 00:49:54;;;;;;;355.23;111.13;;;;;;;5.38;65.49;99608.09;341177;29;2227;-72
2021/12/13 00:50:42;;;;;;;355.17;109.95;;;;;;;5.41;65.36;99600.25;339994;28;1304;-72
2021/12/13 00:50:59;;;;;;;355.40;109.80;;;;;;;5.43;65.26;99601.09;338637;29;1784;-72
2021/12/13 00:51:13;;;;;;;354.05;106.85;;;;;;;5.43;65.54;99595.88;342565;28;2134;-72
2021/12/13 00:51:27;;;;;;;352.80;105.60;;;;;;;5.44;65.36;99604.53;341072;29;2051;-72
2021/12/13 00:51:44;;;;;;;354.02;107.70;;;;;;;5.42;65.20;99607.16;341298;29;2061;-72
2021/12/13 00:51:56;;;;;;;353.17;107.07;;;;;;;5.42;64.96;99601.13;339937;29;2061;-72
2021/12/13 00:52:06;;;;;;;353.48;108.63;;;;;;;5.43;65.13;99601.09;340051;29;893;-72
2021/12/13 00:52:17;;;;;;;353.13;106.30;;;;;;;5.39;64.87;99594.25;340029;29;2277;-72
2021/12/13 00:52:31;;;;;;;354.05;106.60;;;;;;;5.39;65.04;99598.56;337892;29;2155;-72
2021/12/13 00:52:43;;;;;;;355.25;108.88;;;;;;;5.40;65.00;99601.13;338152;29;2277;-72
2021/12/13 00:52:54;;;;;;;356.70;112.57;;;;;;;5.39;65.46;99599.44;340117;29;1927;-72
2021/12/13 00:53:04;;;;;;;354.87;111.27;;;;;;;5.40;65.20;99600.28;343074;28;878;-72
2021/12/13 00:53:18;;;;;;;354.25;110.10;;;;;;;5.35;65.50;99608.16;340090;29;1862;-72
2021/12/13 00:53:34;;;;;;;352.83;107.22;;;;;;;5.33;64.95;99600.41;340161;29;2011;-72
2021/12/13 00:53:47;;;;;;;353.65;106.00;;;;;;;5.36;65.07;99607.28;337709;29;2152;-72
2021/12/13 00:54:03;;;;;;;356.75;110.80;;;;;;;5.38;65.00;99605.50;339325;29;2167;-72
2021/12/13 00:54:18;;;;;;;357.48;112.57;;;;;;;5.40;65.35;99608.06;340819;29;1432;-72
2021/12/13 00:54:34;;;;;;;355.98;110.30;;;;;;;5.39;65.03;99604.63;340974;29;1835;-72
2021/12/13 00:54:44;;;;;;;355.13;111.00;;;;;;;5.39;65.31;99603.75;342025;28;2057;-72
2021/12/13 00:54:56;;;;;;;354.75;110.47;;;;;;;5.40;65.74;99601.13;340070;29;2002;-72
2021/12/13 00:55:20;;;;;;;353.33;108.53;;;;;;;5.38;65.36;99596.88;345301;28;1430;-72
2021/12/13 00:55:32;;;;;;;355.20;111.72;;;;;;;5.35;65.19;99605.56;340626;29;2143;-72
2021/12/13 00:55:42;;;;;;;355.33;111.07;;;;;;;5.35;65.52;99602.97;339841;29;1494;-72
2021/12/13 00:55:53;;;;;;;354.13;107.87;;;;;;;5.36;65.26;99599.50;341368;28;1217;-72
2021/12/13 00:56:42;;;;;;;352.93;106.40;;;;;;;5.33;65.23;99595.22;340781;28;2259;-73
2021/12/13 00:56:58;;;;;;;354.08;108.90;;;;;;;5.33;65.30;99610.78;341380;29;917;-72
2021/12/13 00:57:27;;;;;;;354.52;107.68;;;;;;;5.35;65.51;99603.81;339882;29;2302;-72
2021/12/13 00:57:42;;;;;;;353.55;108.18;;;;;;;5.39;65.32;99608.94;341399;28;1482;-72
2021/12/13 00:58:07;;;;;;;353.88;109.88;;;;;;;5.40;65.25;99600.28;343663;28;1050;-72
2021/12/13 00:58:19;;;;;;;353.98;108.75;;;;;;;5.35;65.19;99608.16;340691;28;1515;-72
2021/12/13 00:58:29;;;;;;;355.15;110.07;;;;;;;5.34;64.74;99601.25;341525;28;1629;-72
2021/12/13 00:58:40;;;;;;;354.07;108.07;;;;;;;5.35;64.88;99602.97;342522;28;1813;-72
2021/12/13 00:58:50;;;;;;;353.33;106.65;;;;;;;5.33;64.76;99607.34;343850;28;2312;-72
2021/12/13 00:59:00;;;;;;;352.30;104.20;;;;;;;5.34;64.68;99603.84;340527;29;1817;-72
2021/12/13 00:59:14;;;;;;;354.17;107.23;;;;;;;5.35;65.00;99610.75;341298;29;2076;-72
2021/12/13 00:59:32;;;;;;;355.35;111.57;;;;;;;5.37;64.80;99598.59;342340;28;1489;-72
2021/12/13 00:59:48;;;;;;;354.38;109.43;;;;;;;5.36;64.75;99609.88;343604;28;1817;-72
2021/12/13 01:00:04;;;;;;;352.08;104.70;;;;;;;5.37;65.11;99605.53;342344;28;1685;-72
2021/12/13 01:00:27;;;;;;;351.48;104.12;;;;;;;5.31;64.91;99596.13;339477;29;2250;-72
2021/12/13 01:01:05;;;;;;;354.52;106.35;;;;;;;5.29;64.71;99601.34;342057;28;1714;-72
2021/12/13 01:01:16;;;;;;;355.08;112.88;;;;;;;5.31;64.88;99603.91;337262;28;1516;-72
2021/12/13 01:01:26;;;;;;;355.15;113.68;;;;;;;5.31;64.81;99601.31;343195;28;1562;-72
2021/12/13 01:01:37;;;;;;;355.90;113.73;;;;;;;5.33;64.70;99615.13;342524;28;1148;-72
2021/12/13 01:02:05;;;;;;;354.40;110.95;;;;;;;5.35;64.96;99608.16;341199;29;2098;-72
2021/12/13 01:02:26;;;;;;;354.70;105.63;;;;;;;5.37;64.87;99605.53;340456;28;2145;-72
2021/12/13 01:02:44;;;;;;;356.48;110.05;;;;;;;5.38;64.75;99607.25;338519;29;1772;-71
2021/12/13 01:03:00;;;;;;;356.05;111.82;;;;;;;5.39;64.96;99599.44;341842;28;1548;-71
2021/12/13 01:03:18;;;;;;;354.98;110.35;;;;;;;5.40;65.05;99611.53;341300;29;904;-71
2021/12/13 01:03:40;;;;;;;352.40;105.28;;;;;;;5.39;65.28;99604.63;342520;28;1971;-71
2021/12/13 01:03:51;;;;;;;354.90;109.97;;;;;;;5.39;65.07;99604.63;340732;28;1905;-71
2021/12/13 01:04:04;;;;;;;353.73;108.32;;;;;;;5.40;65.06;99605.47;341898;28;2088;-71
2021/12/13 01:04:15;;;;;;;354.13;106.80;;;;;;;5.40;65.04;99608.94;341651;28;1999;-72
2021/12/13 01:04:49;;;;;;;354.90;107.03;;;;;;;5.43;65.10;99608.00;341031;29;1912;-72
2021/12/13 01:05:38;;;;;;;355.55;108.88;;;;;;;5.39;65.00;99604.63;341248;28;1980;-72
2021/12/13 01:06:14;;;;;;;353.58;106.88;;;;;;;5.39;64.88;99607.22;340969;28;1882;-72
2021/12/13 01:07:18;;;;;;;354.60;108.63;;;;;;;5.44;65.24;99607.97;340650;28;2099;-72
2021/12/13 01:08:05;;;;;;;354.50;110.20;;;;;;;5.36;64.75;99599.50;341801;28;1603;-72
2021/12/13 01:08:15;;;;;;;354.40;107.13;;;;;;;5.33;65.05;99603.00;343342;28;1714;-72
2021/12/13 01:08:47;;;;;;;353.80;107.20;;;;;;;5.37;65.23;99605.53;342569;28;1761;-72
2021/12/13 01:09:16;;;;;;;351.42;102.78;;;;;;;5.37;64.82;99601.19;346997;28;1790;-70
2021/12/13 01:09:53;;;;;;;355.08;109.40;;;;;;;5.36;64.69;99599.50;345063;28;886;-71
2021/12/13 01:10:41;;;;;;;356.30;109.63;;;;;;;5.34;65.04;99596.94;343658;28;1802;-71
2021/12/13 01:10:54;;;;;;;355.33;109.95;;;;;;;5.35;65.20;99600.38;343469;28;1760;-70
2021/12/13 01:11:19;;;;;;;354.85;107.22;;;;;;;5.33;65.23;99597.81;342318;28;1716;-72
2021/12/13 01:11:57;;;;;;;354.77;109.78;;;;;;;5.34;64.88;99596.94;340977;28;1916;-70
2021/12/13 01:12:10;;;;;;;353.73;106.50;;;;;;;5.36;65.33;99602.09;343168;28;1694;-71
2021/12/13 01:12:22;;;;;;;352.08;107.47;;;;;;;5.39;64.79;99599.44;340061;28;2317;-72
2021/12/13 01:12:33;;;;;;;352.75;106.72;;;;;;;5.40;65.27;99600.28;341787;28;2144;-72
2021/12/13 01:12:47;;;;;;;353.57;107.40;;;;;;;5.37;65.26;99603.78;342558;28;1524;-72
2021/12/13 01:12:58;;;;;;;355.23;108.80;;;;;;;5.40;65.32;99606.31;340928;29;1551;-72
2021/12/13 01:13:46;;;;;;;355.67;109.90;;;;;;;5.41;65.01;99595.06;339924;29;1587;-71
2021/12/13 01:14:17;;;;;;;352.90;106.65;;;;;;;5.38;65.01;99605.50;337316;29;1635;-70
2021/12/13 01:14:35;;;;;;;356.80;112.45;;;;;;;5.36;65.17;99594.31;339402;29;1198;-70
2021/12/13 01:14:59;;;;;;;356.95;113.10;;;;;;;5.33;65.24;99589.16;339718;29;1795;-71
2021/12/13 01:15:15;;;;;;;355.60;111.07;;;;;;;5.30;65.00;99597.88;339499;29;2002;-72
2021/12/13 01:15:36;;;;;;;352.80;107.30;;;;;;;5.32;65.12;99603.03;339554;29;1924;-70
2021/12/13 01:15:59;;;;;;;353.90;107.88;;;;;;;5.33;65.34;99591.78;337346;29;2447;-70
2021/12/13 01:16:32;;;;;;;356.63;111.35;;;;;;;5.31;65.47;99590.94;336088;29;2123;-70
2021/12/13 01:17:02;;;;;;;354.45;108.70;;;;;;;5.28;65.11;99593.59;337832;29;1376;-72
2021/12/13 01:17:37;;;;;;;358.27;113.65;;;;;;;5.32;65.41;99593.50;338586;29;1568;-72
2021/12/13 01:18:28;;;;;;;355.08;110.03;;;;;;;5.28;65.19;99596.19;342925;28;1579;-72
2021/12/13 01:19:13;;;;;;;352.50;107.57;;;;;;;5.31;65.38;99590.94;340977;29;1838;-72
2021/12/13 01:19:32;;;;;;;355.73;112.40;;;;;;;5.30;65.41;99594.41;340840;28;2066;-70
2021/12/13 01:19:52;;;;;;;353.17;108.00;;;;;;;5.30;65.42;99597.00;341335;29;971;-71
2021/12/13 01:20:18;;;;;;;354.64;110.12;;;;;;;5.27;64.95;99594.47;342376;28;1230;-70
2021/12/13 01:20:55;;;;;;;354.17;107.50;;;;;;;5.30;65.01;99599.59;339711;29;1194;-70
2021/12/13 01:21:15;;;;;;;353.75;107.78;;;;;;;5.33;65.19;99596.97;340005;28;979;-70
2021/12/13 01:21:43;;;;;;;354.77;110.70;;;;;;;5.34;65.70;99602.13;339575;28;1258;-70
2021/12/13 01:22:02;;;;;;;356.13;111.38;;;;;;;5.29;65.01;99601.34;342444;28;1745;-71
2021/12/13 01:22:56;;;;;;;355.00;109.90;;;;;;;5.30;65.23;99610.00;343905;28;1574;-71
2021/12/13 01:23:17;;;;;;;354.88;109.65;;;;;;;5.31;65.02;99606.50;341043;29;1978;-71
2021/12/13 01:23:49;;;;;;;355.95;111.68;;;;;;;5.30;65.07;99610.00;341014;29;905;-70
2021/12/13 01:24:07;;;;;;;352.92;106.60;;;;;;;5.28;65.47;99598.78;341045;28;1578;-70
2021/12/13 01:24:30;;;;;;;353.30;107.13;;;;;;;5.30;65.43;99603.06;339903;29;1543;-70
2021/12/13 01:25:47;;;;;;;356.00;111.45;;;;;;;5.36;64.93;99604.69;342385;28;2341;-70
2021/12/13 01:26:02;;;;;;;356.05;111.00;;;;;;;5.32;64.27;99605.63;342666;28;1557;-70
2021/12/13 01:26:36;;;;;;;354.27;108.70;;;;;;;5.34;64.72;99603.84;338232;29;1165;-70
2021/12/13 01:26:48;;;;;;;356.42;114.45;;;;;;;5.32;64.83;99611.66;339764;29;1917;-70
2021/12/13 01:26:59;;;;;;;354.63;109.90;;;;;;;5.35;65.23;99605.56;342549;28;1044;-70
2021/12/13 01:27:09;;;;;;;356.38;112.03;;;;;;;5.33;65.26;99607.34;341485;28;2322;-70
2021/12/13 01:27:41;;;;;;;357.57;113.33;;;;;;;5.33;64.85;99607.34;342706;28;2036;-70
2021/12/13 01:27:58;;;;;;;354.08;110.03;;;;;;;5.34;65.01;99607.31;338381;29;2061;-70
2021/12/13 01:28:18;;;;;;;354.20;109.05;;;;;;;5.32;65.04;99603.03;338432;29;2046;-70
2021/12/13 01:28:41;;;;;;;355.55;110.45;;;;;;;5.32;65.35;99610.81;338569;29;885;-70
2021/12/13 01:28:55;;;;;;;354.92;110.40;;;;;;;5.33;65.22;99604.75;341855;28;1616;-70
2021/12/13 01:29:08;;;;;;;355.38;108.85;;;;;;;5.33;65.08;99610.78;341607;28;1748;-70
2021/12/13 01:29:22;;;;;;;355.08;109.20;;;;;;;5.31;64.92;99603.91;340958;28;2120;-70
2021/12/13 01:29:32;;;;;;;350.92;106.07;;;;;;;5.30;65.47;99616.03;343632;28;2138;-70
2021/12/13 01:29:45;;;;;;;350.38;106.03;;;;;;;5.31;65.13;99616.88;343987;28;1031;-71
2021/12/13 01:29:55;;;;;;;350.50;105.80;;;;;;;5.31;65.42;99606.50;340302;28;1815;-71